Time;durP1;ratioP1;P1;durP2;ratioP2;P2;SDS_P1;SDS_P2;PMS_P1;PMS_P2;Temp;Humidity;BMP_temperature;BMP_pressure;BME280_temperature;BME280_humidity;BME280_pressure;Samples;Min_cycle;Max_cycle;Signal;HPM_P1;HPM_P2
2021/08/07 00:00:28;;;;;;;4.72;3.30;;;18.60;99.90;;;;;;5018935;28;20430;-78
2021/08/07 00:02:55;;;;;;;6.40;3.00;;;18.50;99.90;;;;;;5019609;28;20093;-77
2021/08/07 00:05:23;;;;;;;4.10;3.20;;;18.40;99.90;;;;;;5020133;28;20137;-78
2021/08/07 00:07:50;;;;;;;3.50;3.17;;;18.40;99.90;;;;;;5019757;28;20042;-77
2021/08/07 00:10:17;;;;;;;4.03;2.95;;;18.40;99.90;;;;;;5021501;28;20105;-77
2021/08/07 00:12:44;;;;;;;4.88;3.42;;;18.40;99.90;;;;;;5018876;28;20049;-77
2021/08/07 00:15:11;;;;;;;5.55;3.40;;;18.30;99.90;;;;;;5019423;28;20132;-77
2021/08/07 00:17:38;;;;;;;5.28;3.30;;;18.20;99.90;;;;;;5020307;28;20054;-79
2021/08/07 00:20:06;;;;;;;4.72;3.30;;;18.30;99.90;;;;;;5022523;28;20132;-78
2021/08/07 00:22:34;;;;;;;6.03;3.10;;;18.20;99.90;;;;;;5022558;28;20141;-78
2021/08/07 00:25:01;;;;;;;3.53;3.13;;;18.20;99.90;;;;;;5021618;28;20085;-78
2021/08/07 00:27:28;;;;;;;5.75;3.20;;;18.20;99.90;;;;;;5022782;28;20144;-78
2021/08/07 00:29:55;;;;;;;4.78;3.28;;;18.20;99.90;;;;;;5022348;28;20081;-78
2021/08/07 00:32:22;;;;;;;3.42;3.13;;;18.20;99.90;;;;;;5021769;28;20077;-77
2021/08/07 00:34:49;;;;;;;4.97;3.33;;;18.20;99.90;;;;;;5020611;28;20112;-79
2021/08/07 00:37:16;;;;;;;4.60;2.92;;;18.10;99.90;;;;;;5017783;28;20137;-78
2021/08/07 00:39:44;;;;;;;6.55;3.20;;;18.10;99.90;;;;;;5016284;28;20084;-78
2021/08/07 00:42:11;;;;;;;3.95;2.97;;;18.00;99.90;;;;;;5016433;28;20080;-78
2021/08/07 00:44:38;;;;;;;5.32;3.13;;;18.00;99.90;;;;;;5018973;28;20129;-78
2021/08/07 00:47:05;;;;;;;5.88;3.20;;;17.90;99.90;;;;;;5019816;28;20056;-79
2021/08/07 00:49:32;;;;;;;4.65;3.20;;;17.90;99.90;;;;;;5019646;28;20130;-78
2021/08/07 00:51:59;;;;;;;6.47;3.83;;;17.90;99.90;;;;;;5019119;28;20132;-78
2021/08/07 00:54:26;;;;;;;3.85;3.10;;;17.90;99.90;;;;;;5018398;28;20136;-77
2021/08/07 00:56:54;;;;;;;5.82;3.28;;;17.90;99.90;;;;;;5018497;28;20045;-78
2021/08/07 00:59:21;;;;;;;4.00;3.30;;;17.90;99.90;;;;;;5019022;28;20084;-78
2021/08/07 01:01:53;;;;;;;7.82;3.65;;;17.90;99.90;;;;;;5019540;28;20085;-78
2021/08/07 01:04:24;;;;;;;4.15;3.30;;;17.90;99.90;;;;;;5019283;28;20543;-78
2021/08/07 01:06:59;;;;;;;5.22;3.15;;;17.90;99.90;;;;;;5019624;28;20140;-78
2021/08/07 01:09:37;;;;;;;4.85;3.55;;;17.90;99.90;;;;;;5019752;28;20138;-79
2021/08/07 01:12:13;;;;;;;4.25;3.40;;;17.90;99.90;;;;;;5016305;28;20083;-79
2021/08/07 01:14:43;;;;;;;4.78;3.40;;;17.90;99.90;;;;;;5016379;28;20140;-79
2021/08/07 01:17:15;;;;;;;4.63;3.50;;;17.80;99.90;;;;;;5015980;28;20050;-78
2021/08/07 01:19:51;;;;;;;5.22;3.33;;;17.80;99.90;;;;;;5015742;28;20137;-78
2021/08/07 01:22:20;;;;;;;4.30;3.58;;;17.70;99.90;;;;;;5016164;28;20054;-78
2021/08/07 01:24:52;;;;;;;4.75;3.28;;;17.70;99.90;;;;;;5014787;28;20054;-78
2021/08/07 01:27:25;;;;;;;7.20;3.80;;;17.70;99.90;;;;;;5014800;28;20349;-78
2021/08/07 01:29:54;;;;;;;4.05;3.33;;;17.60;99.90;;;;;;5014628;28;20070;-77
2021/08/07 01:32:25;;;;;;;3.85;3.17;;;17.60;99.90;;;;;;5014389;28;20050;-78
2021/08/07 01:34:53;;;;;;;4.38;3.60;;;17.60;99.90;;;;;;5019772;28;20046;-79
2021/08/07 01:37:21;;;;;;;5.70;3.60;;;17.60;99.90;;;;;;5020791;28;20109;-79
2021/08/07 01:39:50;;;;;;;5.30;3.85;;;17.60;99.90;;;;;;5021706;28;20506;-79
2021/08/07 01:42:17;;;;;;;5.53;3.60;;;17.50;99.90;;;;;;5021056;28;20118;-79
2021/08/07 01:44:45;;;;;;;6.07;3.83;;;17.50;99.90;;;;;;5019801;28;20108;-78
2021/08/07 01:47:20;;;;;;;7.70;3.92;;;17.50;99.90;;;;;;5021161;28;20053;-79
2021/08/07 01:49:49;;;;;;;6.97;4.15;;;17.40;99.90;;;;;;5018981;28;20046;-77
2021/08/07 01:52:19;;;;;;;7.43;4.25;;;17.40;99.90;;;;;;5019872;28;20140;-78
2021/08/07 01:54:50;;;;;;;5.97;4.03;;;17.40;99.90;;;;;;5022099;28;20073;-78
2021/08/07 01:57:21;;;;;;;5.32;4.10;;;17.30;99.90;;;;;;5021740;28;20064;-79
2021/08/07 01:59:51;;;;;;;5.55;3.85;;;17.30;99.90;;;;;;5022774;28;20478;-78
2021/08/07 02:02:18;;;;;;;5.13;3.92;;;17.30;99.90;;;;;;5017034;28;20045;-77
2021/08/07 02:04:46;;;;;;;7.03;4.00;;;17.30;99.90;;;;;;5018535;28;20078;-78
2021/08/07 02:07:15;;;;;;;6.57;3.80;;;17.30;99.90;;;;;;5016659;28;20081;-77
2021/08/07 02:09:44;;;;;;;5.57;4.13;;;17.20;99.90;;;;;;5017167;28;20061;-78
2021/08/07 02:12:12;;;;;;;4.97;3.70;;;17.20;99.90;;;;;;5017683;28;20133;-77
2021/08/07 02:14:40;;;;;;;8.85;4.22;;;17.10;99.90;;;;;;5016193;28;20137;-79
2021/08/07 02:17:08;;;;;;;8.13;3.88;;;17.10;99.90;;;;;;5014540;28;20080;-77
2021/08/07 02:19:38;;;;;;;6.68;3.97;;;17.10;99.90;;;;;;5014296;28;20048;-77
2021/08/07 02:22:07;;;;;;;4.93;3.95;;;17.10;99.90;;;;;;5013962;28;20053;-77
2021/08/07 02:24:34;;;;;;;7.88;4.25;;;17.00;99.90;;;;;;5013385;28;20081;-77
2021/08/07 02:27:02;;;;;;;9.07;3.97;;;17.00;99.90;;;;;;5015227;28;20046;-77
2021/08/07 02:29:31;;;;;;;6.75;3.95;;;16.90;99.90;;;;;;5017037;28;20092;-77
2021/08/07 02:31:59;;;;;;;5.68;4.25;;;16.80;99.90;;;;;;5016223;28;20114;-78
2021/08/07 02:34:29;;;;;;;7.25;4.22;;;16.70;99.90;;;;;;5013471;28;20140;-77
2021/08/07 02:36:57;;;;;;;5.70;4.50;;;16.70;99.90;;;;;;5013666;28;20128;-76
2021/08/07 02:39:26;;;;;;;4.80;4.30;;;16.70;99.90;;;;;;5013792;28;20096;-77
2021/08/07 02:41:54;;;;;;;5.72;3.92;;;16.70;99.90;;;;;;5014203;28;20092;-76
2021/08/07 02:44:21;;;;;;;5.88;3.80;;;16.60;99.90;;;;;;5013556;28;20148;-77
2021/08/07 02:46:49;;;;;;;5.30;4.10;;;16.60;99.90;;;;;;5014803;28;20052;-77
2021/08/07 02:49:15;;;;;;;6.35;4.40;;;16.60;99.90;;;;;;5012658;28;20050;-77
2021/08/07 02:51:44;;;;;;;6.32;4.20;;;16.50;99.90;;;;;;5012396;28;20056;-77
2021/08/07 02:54:11;;;;;;;9.00;5.43;;;16.50;99.90;;;;;;5014947;28;20133;-77
2021/08/07 02:56:38;;;;;;;6.78;4.00;;;16.40;99.90;;;;;;5013958;28;20053;-77
2021/08/07 02:59:05;;;;;;;7.88;4.53;;;16.40;99.90;;;;;;5013862;28;20062;-77
2021/08/07 03:01:32;;;;;;;7.18;4.00;;;16.40;99.90;;;;;;5014238;28;20137;-78
2021/08/07 03:04:00;;;;;;;5.38;4.00;;;16.30;99.90;;;;;;5018932;28;20093;-77
2021/08/07 03:06:27;;;;;;;5.57;4.20;;;16.30;99.90;;;;;;5014653;28;20060;-78
2021/08/07 03:08:55;;;;;;;5.80;4.25;;;16.30;99.90;;;;;;5014645;28;20081;-77
2021/08/07 03:11:22;;;;;;;6.40;4.35;;;16.20;99.90;;;;;;5013772;28;20417;-78
2021/08/07 03:13:49;;;;;;;7.95;4.10;;;16.20;99.90;;;;;;5013929;28;20073;-78
2021/08/07 03:16:16;;;;;;;7.85;4.68;;;16.20;99.90;;;;;;5013643;28;20049;-78
2021/08/07 03:18:42;;;;;;;7.53;4.47;;;16.20;99.90;;;;;;5018150;28;20136;-78
2021/08/07 03:21:09;;;;;;;9.80;4.18;;;16.10;99.90;;;;;;5018458;28;20049;-78
2021/08/07 03:23:36;;;;;;;6.55;4.15;;;16.10;99.90;;;;;;5018236;28;20054;-78
2021/08/07 03:26:04;;;;;;;7.50;4.60;;;16.10;99.90;;;;;;5019022;28;20201;-78
2021/08/07 03:28:31;;;;;;;6.40;4.30;;;16.10;99.90;;;;;;5018329;28;20045;-78
2021/08/07 03:30:58;;;;;;;6.80;4.35;;;16.10;99.90;;;;;;5015967;28;20053;-78
2021/08/07 03:33:25;;;;;;;7.95;4.65;;;16.00;99.90;;;;;;5015815;28;20050;-77
2021/08/07 03:35:52;;;;;;;9.50;4.78;;;16.00;99.90;;;;;;5016069;28;20108;-77
2021/08/07 03:38:19;;;;;;;8.23;4.72;;;16.00;99.90;;;;;;5016468;28;20541;-77
2021/08/07 03:40:47;;;;;;;5.50;4.10;;;15.90;99.90;;;;;;5018235;28;20378;-78
2021/08/07 03:43:15;;;;;;;5.20;4.30;;;15.90;99.90;;;;;;5019566;28;20050;-78
2021/08/07 03:45:42;;;;;;;5.65;4.32;;;15.90;99.90;;;;;;5021583;28;20073;-78
2021/08/07 03:48:09;;;;;;;5.15;4.20;;;15.90;99.90;;;;;;5020926;28;20133;-78
2021/08/07 03:50:36;;;;;;;6.80;4.10;;;15.90;99.90;;;;;;5019586;28;20072;-79
2021/08/07 03:53:03;;;;;;;5.57;3.95;;;16.00;99.90;;;;;;5017369;28;20552;-79
2021/08/07 03:55:30;;;;;;;6.55;4.30;;;16.00;99.90;;;;;;5016305;28;20104;-78
2021/08/07 03:57:59;;;;;;;8.77;4.25;;;16.00;99.90;;;;;;5016052;28;20064;-78
2021/08/07 04:00:29;;;;;;;7.03;5.03;;;16.00;99.90;;;;;;5015475;28;20057;-79
2021/08/07 04:02:56;;;;;;;6.90;4.00;;;16.00;99.90;;;;;;5016108;28;20507;-76
2021/08/07 04:05:23;;;;;;;6.18;3.90;;;16.10;99.90;;;;;;5016920;28;20141;-78
2021/08/07 04:07:50;;;;;;;5.85;4.00;;;16.10;99.90;;;;;;5017639;28;20077;-78
2021/08/07 04:10:17;;;;;;;6.63;4.68;;;16.10;99.90;;;;;;5017106;28;20129;-78
2021/08/07 04:12:45;;;;;;;6.57;3.95;;;16.10;99.90;;;;;;5016847;28;20140;-77
2021/08/07 04:15:12;;;;;;;6.25;4.22;;;16.10;99.90;;;;;;5014856;28;20077;-77
2021/08/07 04:17:40;;;;;;;5.45;3.90;;;16.10;99.90;;;;;;5015550;28;20132;-78
2021/08/07 04:20:10;;;;;;;6.53;3.90;;;16.00;99.90;;;;;;5014697;28;20137;-77
2021/08/07 04:22:37;;;;;;;6.50;4.40;;;16.00;99.90;;;;;;5014822;28;20180;-77
2021/08/07 04:25:05;;;;;;;6.32;4.15;;;16.00;99.90;;;;;;5014670;28;20089;-77
2021/08/07 04:27:32;;;;;;;5.20;3.63;;;16.00;99.90;;;;;;5014957;28;20407;-77
2021/08/07 04:29:58;;;;;;;6.50;4.28;;;16.00;99.90;;;;;;5014836;28;20041;-77
2021/08/07 04:32:26;;;;;;;5.38;3.97;;;16.10;99.90;;;;;;5014837;28;20152;-78
2021/08/07 04:34:54;;;;;;;5.32;3.95;;;16.20;99.90;;;;;;5014053;28;20056;-77
2021/08/07 04:37:21;;;;;;;5.20;3.65;;;16.20;99.90;;;;;;5014377;28;20050;-77
2021/08/07 04:39:48;;;;;;;5.68;4.07;;;16.20;99.90;;;;;;5014211;28;20070;-77
2021/08/07 04:42:14;;;;;;;7.13;3.80;;;16.20;99.90;;;;;;5014609;28;20050;-77
2021/08/07 04:44:41;;;;;;;6.72;3.90;;;16.20;99.90;;;;;;5013903;28;20072;-77
2021/08/07 04:47:08;;;;;;;5.82;4.00;;;16.30;99.90;;;;;;5014048;28;20084;-78
2021/08/07 04:49:36;;;;;;;6.03;3.70;;;16.20;99.90;;;;;;5014165;28;20085;-77
2021/08/07 04:52:05;;;;;;;5.60;3.95;;;16.20;99.90;;;;;;5067763;23;20064;-77
2021/08/07 04:54:32;;;;;;;6.13;4.03;;;16.30;99.90;;;;;;5053835;28;20083;-77
2021/08/07 04:57:01;;;;;;;6.05;4.15;;;16.40;99.90;;;;;;5053584;28;20135;-78
2021/08/07 04:59:28;;;;;;;5.55;3.83;;;16.40;99.90;;;;;;5054372;28;20493;-78
2021/08/07 05:01:55;;;;;;;5.63;3.90;;;16.40;99.90;;;;;;5039311;28;20486;-78
2021/08/07 05:04:22;;;;;;;6.63;4.22;;;16.50;99.90;;;;;;5033592;28;20121;-78
2021/08/07 05:06:49;;;;;;;9.80;4.10;;;16.50;99.90;;;;;;5033912;28;20049;-78
2021/08/07 05:09:17;;;;;;;6.80;3.72;;;16.60;99.90;;;;;;5033438;28;20077;-78
2021/08/07 05:11:46;;;;;;;7.85;3.72;;;16.60;99.90;;;;;;5033541;28;20049;-78
2021/08/07 05:14:13;;;;;;;10.18;4.10;;;16.60;99.90;;;;;;5033491;28;20045;-78
2021/08/07 05:16:40;;;;;;;7.07;3.83;;;16.80;99.90;;;;;;5034178;28;20119;-78
2021/08/07 05:19:07;;;;;;;6.65;3.88;;;16.80;99.90;;;;;;5034058;28;20049;-78
2021/08/07 05:21:35;;;;;;;11.07;4.20;;;16.80;99.90;;;;;;5033235;28;20065;-77
2021/08/07 05:24:02;;;;;;;6.20;3.80;;;17.00;99.90;;;;;;5033502;28;20479;-78
2021/08/07 05:26:30;;;;;;;7.45;4.30;;;17.10;99.90;;;;;;5033157;28;20053;-77
2021/08/07 05:28:57;;;;;;;5.47;3.38;;;17.10;99.90;;;;;;5033219;28;20147;-76
2021/08/07 05:31:24;;;;;;;8.20;4.53;;;17.20;99.90;;;;;;5032543;28;20076;-77
2021/08/07 05:33:51;;;;;;;6.28;3.97;;;17.30;99.90;;;;;;5032718;28;20197;-79
2021/08/07 05:36:18;;;;;;;5.68;4.05;;;17.30;99.90;;;;;;5033661;28;20056;-77
2021/08/07 05:38:45;;;;;;;6.93;3.58;;;17.30;99.90;;;;;;5035539;28;20141;-80
2021/08/07 05:41:17;;;;;;;8.02;4.00;;;17.40;99.90;;;;;;5039461;28;20421;-79
2021/08/07 05:43:45;;;;;;;9.82;4.80;;;17.40;99.90;;;;;;5035135;28;20081;-78
2021/08/07 05:46:12;;;;;;;8.65;3.70;;;17.60;99.90;;;;;;5033634;28;20478;-78
2021/08/07 05:48:39;;;;;;;7.65;4.30;;;17.60;99.90;;;;;;5033070;28;20111;-78
2021/08/07 05:51:06;;;;;;;6.18;3.55;;;17.70;99.90;;;;;;5032575;28;20592;-77
2021/08/07 05:53:33;;;;;;;7.43;3.85;;;17.80;99.90;;;;;;5032266;28;20132;-78
2021/08/07 05:56:00;;;;;;;7.78;3.80;;;17.80;99.90;;;;;;5032640;28;20089;-78
2021/08/07 05:58:27;;;;;;;7.57;3.90;;;17.80;99.90;;;;;;5033284;28;20547;-77
2021/08/07 06:00:55;;;;;;;7.40;3.90;;;17.80;99.90;;;;;;5032385;28;20472;-78
2021/08/07 06:03:22;;;;;;;7.63;3.80;;;17.80;99.90;;;;;;5032865;28;20088;-76
2021/08/07 06:05:48;;;;;;;6.38;4.10;;;17.90;99.90;;;;;;5033052;28;20076;-78
2021/08/07 06:08:15;;;;;;;5.65;3.80;;;17.90;99.90;;;;;;5032066;28;20095;-78
2021/08/07 06:10:42;;;;;;;6.90;3.95;;;18.00;99.90;;;;;;5031917;28;20049;-77
2021/08/07 06:13:09;;;;;;;7.00;3.80;;;18.00;99.90;;;;;;5031787;28;20183;-78
2021/08/07 06:15:36;;;;;;;7.85;4.10;;;18.00;99.90;;;;;;5032290;28;20085;-78
2021/08/07 06:18:05;;;;;;;9.00;4.10;;;18.00;99.90;;;;;;5032161;28;20154;-78
2021/08/07 06:20:32;;;;;;;5.60;3.97;;;18.00;99.90;;;;;;5032298;28;20161;-77
2021/08/07 06:22:59;;;;;;;5.22;3.65;;;18.10;99.90;;;;;;5031988;28;20085;-78
2021/08/07 06:25:26;;;;;;;6.28;4.03;;;18.10;99.90;;;;;;5032459;28;20128;-78
2021/08/07 06:27:55;;;;;;;8.25;4.68;;;18.30;99.90;;;;;;5033189;28;20087;-77
2021/08/07 06:30:23;;;;;;;14.13;4.00;;;18.40;99.90;;;;;;5033401;28;20131;-78
2021/08/07 06:32:50;;;;;;;6.50;3.85;;;18.50;99.90;;;;;;5031638;28;20057;-78
2021/08/07 06:35:20;;;;;;;12.48;4.00;;;18.60;99.90;;;;;;5032071;28;20096;-77
2021/08/07 06:37:46;;;;;;;10.55;4.10;;;18.80;99.90;;;;;;5030392;28;20132;-79
2021/08/07 06:40:14;;;;;;;8.07;3.45;;;18.90;99.90;;;;;;5032502;28;20510;-78
2021/08/07 06:42:42;;;;;;;5.90;3.47;;;19.10;99.90;;;;;;5031010;28;20585;-77
2021/08/07 06:45:10;;;;;;;7.47;3.90;;;19.20;99.90;;;;;;5032080;28;20114;-76
2021/08/07 06:47:37;;;;;;;8.85;4.10;;;19.40;99.90;;;;;;5031469;28;20128;-77
2021/08/07 06:50:06;;;;;;;6.57;3.78;;;19.50;99.90;;;;;;5030545;28;20136;-77
2021/08/07 06:52:35;;;;;;;6.72;3.40;;;19.60;99.90;;;;;;5035072;28;20045;-78
2021/08/07 06:55:02;;;;;;;5.68;3.70;;;19.60;99.90;;;;;;5033817;28;20059;-79
2021/08/07 06:57:29;;;;;;;7.32;3.60;;;19.50;99.90;;;;;;5034476;28;20049;-77
2021/08/07 06:59:56;;;;;;;6.50;3.60;;;19.40;99.90;;;;;;5034514;28;20136;-76
2021/08/07 07:02:22;;;;;;;9.13;4.00;;;19.40;99.90;;;;;;5034861;28;20077;-78
2021/08/07 07:04:50;;;;;;;5.68;3.60;;;19.30;99.90;;;;;;5034627;28;20115;-77
2021/08/07 07:07:17;;;;;;;5.85;3.67;;;19.30;99.90;;;;;;5035039;28;20076;-77
2021/08/07 07:09:45;;;;;;;6.10;3.65;;;19.30;99.90;;;;;;5035359;28;20145;-77
2021/08/07 07:12:13;;;;;;;7.80;3.58;;;19.40;99.90;;;;;;5034610;28;20093;-77
2021/08/07 07:14:40;;;;;;;6.50;3.53;;;19.50;99.90;;;;;;5034557;28;20057;-77
2021/08/07 07:17:07;;;;;;;8.23;4.00;;;19.70;99.90;;;;;;5034454;28;20060;-78
2021/08/07 07:19:34;;;;;;;6.72;3.50;;;19.80;99.90;;;;;;5032907;28;20128;-76
2021/08/07 07:22:01;;;;;;;5.75;3.60;;;20.00;99.90;;;;;;5029964;28;20145;-76
2021/08/07 07:24:28;;;;;;;8.77;4.03;;;20.30;99.90;;;;;;5033652;28;20057;-75
2021/08/07 07:26:56;;;;;;;9.00;3.60;;;20.60;99.90;;;;;;5034159;28;20522;-75
2021/08/07 07:29:23;;;;;;;9.30;3.97;;;20.70;99.90;;;;;;5033811;28;20071;-77
2021/08/07 07:31:50;;;;;;;7.00;3.88;;;20.70;99.90;;;;;;5033121;28;20527;-78
2021/08/07 07:34:17;;;;;;;9.65;3.72;;;20.90;99.90;;;;;;5033728;28;20129;-76
2021/08/07 07:36:44;;;;;;;5.03;3.40;;;21.10;99.90;;;;;;5032982;28;20133;-78
2021/08/07 07:39:10;;;;;;;8.98;3.95;;;21.30;99.90;;;;;;5033730;28;20049;-77
2021/08/07 07:41:37;;;;;;;6.88;3.50;;;21.40;99.90;;;;;;5033177;28;20056;-77
2021/08/07 07:44:06;;;;;;;9.07;3.67;;;21.40;99.90;;;;;;5033156;28;20049;-77
2021/08/07 07:46:33;;;;;;;9.20;3.80;;;21.40;99.90;;;;;;5033643;28;20059;-76
2021/08/07 07:49:00;;;;;;;6.47;3.40;;;21.40;99.90;;;;;;5033610;28;20136;-75
2021/08/07 07:51:27;;;;;;;5.85;3.15;;;21.20;99.90;;;;;;5033141;28;20045;-75
2021/08/07 07:53:53;;;;;;;4.70;3.40;;;21.30;99.90;;;;;;5033047;28;20589;-75
2021/08/07 07:56:21;;;;;;;4.85;3.05;;;21.60;99.90;;;;;;5033519;28;20502;-75
2021/08/07 07:58:48;;;;;;;7.63;3.88;;;21.80;99.90;;;;;;5033517;28;20417;-78
2021/08/07 08:01:16;;;;;;;9.90;3.55;;;22.00;99.90;;;;;;5033220;28;20049;-77
2021/08/07 08:03:43;;;;;;;6.72;3.55;;;22.00;99.90;;;;;;5032642;28;20444;-78
2021/08/07 08:06:10;;;;;;;7.10;3.47;;;22.20;99.90;;;;;;5033229;28;20081;-77
2021/08/07 08:08:37;;;;;;;6.43;3.58;;;22.30;99.90;;;;;;5033465;28;20052;-75
2021/08/07 08:11:04;;;;;;;8.05;3.40;;;22.40;99.90;;;;;;5033116;28;20053;-76
2021/08/07 08:13:30;;;;;;;6.13;3.25;;;22.70;99.90;;;;;;5032738;28;20132;-76
2021/08/07 08:15:57;;;;;;;9.52;3.58;;;22.90;99.90;;;;;;5033208;28;20080;-75
2021/08/07 08:18:26;;;;;;;5.70;3.28;;;23.30;99.90;;;;;;5033264;28;20545;-79
2021/08/07 08:20:53;;;;;;;7.90;3.38;;;23.60;99.90;;;;;;5032237;28;20050;-76
2021/08/07 08:23:20;;;;;;;8.25;3.78;;;23.70;99.90;;;;;;5032948;28;20557;-76
2021/08/07 08:25:47;;;;;;;6.75;3.22;;;23.70;99.90;;;;;;5032983;28;20422;-76
2021/08/07 08:28:14;;;;;;;10.98;3.38;;;23.80;99.90;;;;;;5032827;28;20144;-76
2021/08/07 08:30:41;;;;;;;5.80;3.30;;;24.20;99.90;;;;;;5032483;28;20120;-76
2021/08/07 08:33:08;;;;;;;9.32;3.50;;;24.50;99.90;;;;;;5032170;28;20084;-77
2021/08/07 08:35:36;;;;;;;8.43;3.08;;;24.50;99.90;;;;;;5032926;28;20055;-75
2021/08/07 08:38:04;;;;;;;5.80;3.15;;;24.50;99.90;;;;;;5032470;28;20383;-76
2021/08/07 08:40:31;;;;;;;6.82;3.10;;;24.30;99.90;;;;;;5032311;28;20447;-77
2021/08/07 08:42:58;;;;;;;8.73;3.00;;;24.00;99.90;;;;;;5032806;28;20510;-76
2021/08/07 08:45:25;;;;;;;7.65;3.30;;;23.70;99.90;;;;;;5033445;28;20055;-76
2021/08/07 08:47:53;;;;;;;6.03;3.17;;;23.50;99.90;;;;;;5033081;28;20528;-78
2021/08/07 08:50:22;;;;;;;9.13;3.70;;;23.50;99.90;;;;;;5032354;28;20483;-76
2021/08/07 08:52:51;;;;;;;8.57;3.35;;;23.50;99.90;;;;;;5032734;28;20049;-77
2021/08/07 08:55:20;;;;;;;7.13;3.15;;;23.40;99.90;;;;;;5032092;28;20060;-76
2021/08/07 08:57:46;;;;;;;8.30;3.00;;;23.50;99.90;;;;;;5031826;28;20589;-76
2021/08/07 09:00:14;;;;;;;6.60;3.10;;;23.80;99.90;;;;;;5032271;28;20049;-75
2021/08/07 09:02:41;;;;;;;5.63;3.15;;;23.90;99.90;;;;;;5032345;28;20057;-77
2021/08/07 09:05:10;;;;;;;6.70;2.95;;;24.10;99.90;;;;;;5032073;28;20518;-76
2021/08/07 09:07:37;;;;;;;8.50;3.17;;;24.00;99.90;;;;;;5032363;28;20052;-77
2021/08/07 09:10:08;;;;;;;5.00;3.05;;;23.90;99.90;;;;;;5031621;28;20055;-75
2021/08/07 09:12:39;;;;;;;5.07;2.78;;;24.00;99.90;;;;;;5033143;28;20128;-75
2021/08/07 09:15:23;;;;;;;8.23;3.08;;;24.20;99.90;;;;;;5031881;28;20049;-75
2021/08/07 09:17:50;;;;;;;5.35;2.92;;;24.00;99.90;;;;;;5032152;28;20136;-77
2021/08/07 09:20:27;;;;;;;7.03;2.83;;;23.90;99.90;;;;;;5031757;28;20057;-76
2021/08/07 09:22:55;;;;;;;6.95;3.00;;;23.90;99.90;;;;;;5031394;28;20042;-76
2021/08/07 09:25:26;;;;;;;4.85;3.10;;;23.80;99.90;;;;;;5031427;28;20501;-76
2021/08/07 09:27:54;;;;;;;5.55;2.92;;;23.80;99.90;;;;;;5032496;28;20053;-75
2021/08/07 09:30:32;;;;;;;6.68;3.08;;;23.80;99.90;;;;;;5031434;28;20080;-77
2021/08/07 09:33:02;;;;;;;5.20;3.20;;;23.80;99.90;;;;;;5030938;28;20053;-76
2021/08/07 09:35:31;;;;;;;10.60;3.45;;;24.20;99.90;;;;;;5031682;28;20075;-76
2021/08/07 09:38:14;;;;;;;5.70;2.80;;;24.40;99.90;;;;;;5031293;28;20053;-76
2021/08/07 09:40:55;;;;;;;6.95;2.85;;;24.60;99.90;;;;;;5031721;28;20049;-77
2021/08/07 09:43:23;;;;;;;6.65;2.80;;;24.60;99.90;;;;;;5031411;28;20045;-77
2021/08/07 09:46:03;;;;;;;8.50;3.42;;;24.50;99.90;;;;;;5031265;28;20041;-76
2021/08/07 09:48:33;;;;;;;9.38;3.05;;;24.70;99.90;;;;;;5031082;28;20075;-76
2021/08/07 09:51:00;;;;;;;8.40;3.10;;;24.80;99.90;;;;;;5030747;28;20132;-76
2021/08/07 09:53:28;;;;;;;5.43;3.30;;;24.80;99.90;;;;;;5031006;28;20194;-76
2021/08/07 09:56:05;;;;;;;5.05;3.20;;;24.70;99.90;;;;;;5030761;28;20056;-76
2021/08/07 09:58:32;;;;;;;6.00;3.08;;;24.80;99.90;;;;;;5030769;28;20053;-76
2021/08/07 10:00:59;;;;;;;6.47;2.53;;;24.80;99.90;;;;;;5030616;28;20572;-77
2021/08/07 10:03:29;;;;;;;9.43;3.00;;;24.80;99.90;;;;;;5031222;28;20471;-76
2021/08/07 10:05:56;;;;;;;7.53;3.10;;;24.70;99.90;;;;;;5030989;28;20072;-76
2021/08/07 10:08:23;;;;;;;7.43;3.28;;;24.80;99.90;;;;;;5030623;28;20149;-77
2021/08/07 10:10:52;;;;;;;6.40;2.80;;;24.80;99.90;;;;;;5030704;28;20128;-76
2021/08/07 10:13:21;;;;;;;6.57;2.60;;;24.70;99.90;;;;;;5030928;28;20536;-76
2021/08/07 10:15:48;;;;;;;8.98;3.00;;;24.50;99.90;;;;;;5031049;28;20057;-77
2021/08/07 10:18:15;;;;;;;3.85;2.85;;;24.30;99.90;;;;;;5031077;28;20052;-76
2021/08/07 10:20:43;;;;;;;5.10;3.00;;;24.40;99.90;;;;;;5030819;28;20510;-76
2021/08/07 10:23:11;;;;;;;6.10;2.55;;;24.50;99.90;;;;;;5030732;28;20140;-77
2021/08/07 10:25:45;;;;;;;4.85;2.55;;;24.50;99.90;;;;;;5030529;28;20053;-76
2021/08/07 10:28:13;;;;;;;5.35;3.08;;;24.50;99.90;;;;;;5029897;28;20075;-75
2021/08/07 10:30:45;;;;;;;6.38;3.10;;;24.40;99.90;;;;;;5030166;28;20049;-78
2021/08/07 10:33:13;;;;;;;5.45;2.90;;;24.40;99.90;;;;;;5030056;28;20052;-77
2021/08/07 10:35:42;;;;;;;5.80;2.97;;;24.20;99.90;;;;;;5030114;28;20060;-75
2021/08/07 10:38:10;;;;;;;8.50;2.83;;;24.10;99.90;;;;;;5030849;28;20437;-77
2021/08/07 10:40:37;;;;;;;4.63;2.72;;;23.90;99.90;;;;;;5030244;28;20049;-77
2021/08/07 10:43:08;;;;;;;5.43;2.83;;;23.80;99.90;;;;;;5029873;28;20045;-77
2021/08/07 10:45:35;;;;;;;9.45;3.13;;;23.60;99.90;;;;;;5030792;28;20049;-77
2021/08/07 10:48:03;;;;;;;5.68;2.95;;;23.40;99.90;;;;;;5030347;28;20136;-77
2021/08/07 10:53:35;;;;;;;9.50;3.28;;;23.10;99.90;;;;;;4996291;28;20077;-81
2021/08/07 10:56:02;;;;;;;4.97;2.90;;;23.00;99.90;;;;;;4980164;28;20114;-79
2021/08/07 10:58:41;;;;;;;6.07;3.10;;;22.90;99.90;;;;;;4980762;28;20106;-80
2021/08/07 11:01:33;;;;;;;10.60;3.22;;;22.70;99.90;;;;;;4982543;28;20051;-80
2021/08/07 11:04:08;;;;;;;7.22;3.10;;;22.30;99.90;;;;;;4981696;28;20047;-81
2021/08/07 11:06:56;;;;;;;5.47;2.60;;;22.00;99.90;;;;;;4995852;28;20069;-81
2021/08/07 11:09:26;;;;;;;4.68;3.00;;;21.80;99.90;;;;;;5002908;28;20050;-79
2021/08/07 11:12:29;;;;;;;3.58;2.33;;;21.70;99.90;;;;;;5005768;28;20058;-80
2021/08/07 11:14:59;;;;;;;5.50;2.60;;;21.60;99.90;;;;;;5007840;28;20536;-79
2021/08/07 11:17:49;;;;;;;6.25;3.20;;;21.60;99.90;;;;;;5001661;28;20054;-80
2021/08/07 11:20:43;;;;;;;7.35;3.20;;;21.70;99.90;;;;;;4999024;28;20056;-79
2021/08/07 11:23:21;;;;;;;4.38;2.58;;;21.90;99.90;;;;;;4999814;28;20125;-79
2021/08/07 11:26:07;;;;;;;4.78;3.00;;;22.00;99.90;;;;;;4999841;28;20057;-79
2021/08/07 11:28:54;;;;;;;3.88;2.40;;;22.20;99.90;;;;;;4998322;28;20102;-80
2021/08/07 11:31:25;;;;;;;4.50;2.50;;;22.50;99.90;;;;;;5000147;28;20057;-79
2021/08/07 11:34:26;;;;;;;4.68;2.30;;;22.90;99.90;;;;;;5011696;28;20463;-79
2021/08/07 11:37:24;;;;;;;3.17;2.20;;;23.20;99.90;;;;;;5010359;28;20066;-78
2021/08/07 11:40:11;;;;;;;4.35;2.50;;;23.50;99.90;;;;;;5014207;28;20038;-79
2021/08/07 11:42:40;;;;;;;5.97;2.28;;;23.80;99.90;;;;;;5004485;28;20218;-80
2021/08/07 11:45:09;;;;;;;3.28;2.00;;;24.00;99.90;;;;;;5005251;28;20062;-81
2021/08/07 11:47:44;;;;;;;3.60;2.30;;;24.10;99.90;;;;;;5004627;28;20053;-79
2021/08/07 11:50:12;;;;;;;3.92;2.13;;;24.30;99.90;;;;;;5003242;28;20054;-78
2021/08/07 11:52:40;;;;;;;3.78;2.10;;;24.20;99.90;;;;;;5003450;28;20109;-80
2021/08/07 11:55:08;;;;;;;3.85;2.33;;;24.10;99.90;;;;;;5004140;28;20549;-80
2021/08/07 11:57:35;;;;;;;4.80;2.40;;;24.00;99.90;;;;;;5006239;28;20081;-81
2021/08/07 12:00:22;;;;;;;5.28;2.42;;;24.00;99.90;;;;;;5006947;28;20054;-82
2021/08/07 12:02:57;;;;;;;3.72;1.92;;;24.10;99.90;;;;;;5007135;28;20057;-82
2021/08/07 12:05:23;;;;;;;3.83;2.33;;;24.00;99.90;;;;;;5005610;28;20137;-80
2021/08/07 12:07:59;;;;;;;4.78;2.35;;;23.90;99.90;;;;;;5006456;28;20105;-81
2021/08/07 12:10:26;;;;;;;2.90;2.05;;;23.80;99.90;;;;;;5006443;28;20114;-80
2021/08/07 12:12:54;;;;;;;3.58;1.92;;;24.00;99.90;;;;;;5006115;28;20110;-78
2021/08/07 12:15:21;;;;;;;3.85;1.98;;;24.10;99.90;;;;;;5008983;28;20051;-81
2021/08/07 12:17:48;;;;;;;3.25;2.20;;;24.30;99.90;;;;;;5012112;28;20054;-79
2021/08/07 12:20:16;;;;;;;3.00;1.92;;;24.30;99.90;;;;;;5009059;28;20476;-81
2021/08/07 12:23:01;;;;;;;8.73;2.55;;;24.20;99.90;;;;;;5008223;28;20077;-81
2021/08/07 12:25:34;;;;;;;3.95;1.70;;;24.20;99.90;;;;;;5009504;28;20050;-80
2021/08/07 12:28:03;;;;;;;4.07;2.47;;;24.20;99.90;;;;;;5008861;28;20137;-81
2021/08/07 12:30:30;;;;;;;5.93;2.28;;;24.30;99.90;;;;;;5009496;28;20129;-80
2021/08/07 12:33:16;;;;;;;4.18;1.90;;;24.30;99.90;;;;;;5010244;28;20074;-79
2021/08/07 12:35:43;;;;;;;3.08;2.10;;;24.20;99.90;;;;;;5010930;28;20077;-82
2021/08/07 12:38:17;;;;;;;5.05;2.08;;;24.30;99.90;;;;;;5010392;28;20074;-78
2021/08/07 12:40:46;;;;;;;3.40;2.10;;;24.40;99.90;;;;;;5011074;28;20069;-85
2021/08/07 12:43:13;;;;;;;2.88;1.80;;;24.50;99.90;;;;;;5010393;28;20050;-79
2021/08/07 12:45:40;;;;;;;4.68;1.90;;;24.70;99.90;;;;;;5009878;28;20084;-80
2021/08/07 12:48:07;;;;;;;7.90;1.88;;;24.80;99.90;;;;;;5006196;28;20161;-79
2021/08/07 12:50:35;;;;;;;3.95;2.15;;;25.00;99.90;;;;;;5006949;28;20054;-79
2021/08/07 12:53:04;;;;;;;3.78;1.85;;;25.10;99.90;;;;;;5002829;28;20050;-81
2021/08/07 12:55:34;;;;;;;4.72;1.80;;;25.10;99.90;;;;;;5001151;28;20055;-80
2021/08/07 12:58:12;;;;;;;4.30;2.42;;;25.00;99.90;;;;;;5000758;28;20080;-81